sensor_id;sensor_type;location;lat;lon;timestamp;pressure;altitude;pressure_sealevel;temperature;humidity
13476;BME280;6810;63.824;20.288;2022-12-24T00:00:58;99765.84;;;-5.78;78.42
13476;BME280;6810;63.824;20.288;2022-12-24T00:03:45;99751.13;;;-5.79;78.53
13476;BME280;6810;63.824;20.288;2022-12-24T00:06:32;99776.16;;;-5.70;78.91
13476;BME280;6810;63.824;20.288;2022-12-24T00:09:22;99778.72;;;-5.67;78.96
13476;BME280;6810;63.824;20.288;2022-12-24T00:12:09;99656.59;;;-6.35;78.87
13476;BME280;6810;63.824;20.288;2022-12-24T00:14:56;99777.78;;;-5.60;78.80
13476;BME280;6810;63.824;20.288;2022-12-24T00:17:43;99774.28;;;-5.56;78.45
13476;BME280;6810;63.824;20.288;2022-12-24T00:20:30;99778.59;;;-5.55;78.64
13476;BME280;6810;63.824;20.288;2022-12-24T00:23:17;99786.34;;;-5.49;78.59
13476;BME280;6810;63.824;20.288;2022-12-24T00:26:05;99784.59;;;-5.49;78.98
13476;BME280;6810;63.824;20.288;2022-12-24T00:28:52;99789.75;;;-5.44;78.82
13476;BME280;6810;63.824;20.288;2022-12-24T00:31:39;99774.22;;;-5.52;78.97
13476;BME280;6810;63.824;20.288;2022-12-24T00:34:26;99786.34;;;-5.51;79.13
13476;BME280;6810;63.824;20.288;2022-12-24T00:37:13;99794.03;;;-5.40;79.37
13476;BME280;6810;63.824;20.288;2022-12-24T00:40:00;99804.41;;;-5.39;79.23
13476;BME280;6810;63.824;20.288;2022-12-24T00:42:47;99812.16;;;-5.37;78.78
13476;BME280;6810;63.824;20.288;2022-12-24T00:45:34;99815.63;;;-5.35;79.52
13476;BME280;6810;63.824;20.288;2022-12-24T00:48:21;99813.84;;;-5.33;79.23
13476;BME280;6810;63.824;20.288;2022-12-24T00:51:08;99819.03;;;-5.32;78.89
13476;BME280;6810;63.824;20.288;2022-12-24T00:53:55;99824.22;;;-5.30;79.54
13476;BME280;6810;63.824;20.288;2022-12-24T00:56:43;99814.78;;;-5.39;79.36
13476;BME280;6810;63.824;20.288;2022-12-24T00:59:30;99826.03;;;-5.37;79.04
13476;BME280;6810;63.824;20.288;2022-12-24T01:02:17;99838.91;;;-5.27;79.66
13476;BME280;6810;63.824;20.288;2022-12-24T01:05:04;99845.81;;;-5.26;79.08
13476;BME280;6810;63.824;20.288;2022-12-24T01:07:57;99846.66;;;-5.24;79.62
13476;BME280;6810;63.824;20.288;2022-12-24T01:10:44;99837.19;;;-5.30;79.94
13476;BME280;6810;63.824;20.288;2022-12-24T01:13:31;99850.09;;;-5.24;79.46
13476;BME280;6810;63.824;20.288;2022-12-24T01:16:19;99857.06;;;-5.24;79.21
13476;BME280;6810;63.824;20.288;2022-12-24T01:19:06;99833.81;;;-5.37;79.62
13476;BME280;6810;63.824;20.288;2022-12-24T01:21:53;99854.47;;;-5.26;79.93
13476;BME280;6810;63.824;20.288;2022-12-24T01:24:41;99856.19;;;-5.25;79.58
13476;BME280;6810;63.824;20.288;2022-12-24T01:27:28;99832.06;;;-5.38;79.80
13476;BME280;6810;63.824;20.288;2022-12-24T01:30:15;99861.38;;;-5.25;79.39
13476;BME280;6810;63.824;20.288;2022-12-24T01:33:02;99871.75;;;-5.25;79.52
13476;BME280;6810;63.824;20.288;2022-12-24T01:35:49;99870.06;;;-5.27;79.35
13476;BME280;6810;63.824;20.288;2022-12-24T01:38:37;99863.22;;;-5.38;79.65
13476;BME280;6810;63.824;20.288;2022-12-24T01:41:24;99863.19;;;-5.35;79.28
13476;BME280;6810;63.824;20.288;2022-12-24T01:47:23;99888.28;;;-5.33;79.28
13476;BME280;6810;63.824;20.288;2022-12-24T01:50:14;99883.97;;;-5.35;79.99
13476;BME280;6810;63.824;20.288;2022-12-24T01:53:04;99871.94;;;-5.46;79.85
13476;BME280;6810;63.824;20.288;2022-12-24T01:55:52;99893.50;;;-5.33;80.07
13476;BME280;6810;63.824;20.288;2022-12-24T02:01:29;99869.34;;;-5.43;80.00
13476;BME280;6810;63.824;20.288;2022-12-24T02:04:26;99881.34;;;-5.35;80.22
13476;BME280;6810;63.824;20.288;2022-12-24T02:07:13;99899.41;;;-5.21;79.47
13476;BME280;6810;63.824;20.288;2022-12-24T02:10:01;99904.59;;;-5.19;79.87
13476;BME280;6810;63.824;20.288;2022-12-24T02:12:48;99901.97;;;-5.16;80.34
13476;BME280;6810;63.824;20.288;2022-12-24T02:16:04;99901.09;;;-5.14;79.62
13476;BME280;6810;63.824;20.288;2022-12-24T02:32:01;99908.81;;;-5.05;79.74
13476;BME280;6810;63.824;20.288;2022-12-24T02:34:54;99914.84;;;-5.03;79.97
13476;BME280;6810;63.824;20.288;2022-12-24T02:37:47;99852.88;;;-5.42;79.88
13476;BME280;6810;63.824;20.288;2022-12-24T02:40:42;99780.63;;;-5.84;79.83
13476;BME280;6810;63.824;20.288;2022-12-24T02:43:35;99930.41;;;-4.98;79.35
13476;BME280;6810;63.824;20.288;2022-12-24T02:46:26;99910.53;;;-5.04;79.29
13476;BME280;6810;63.824;20.288;2022-12-24T02:49:13;99889.00;;;-5.18;79.92
13476;BME280;6810;63.824;20.288;2022-12-24T02:52:00;99904.53;;;-5.10;79.84
13476;BME280;6810;63.824;20.288;2022-12-24T02:54:47;99950.28;;;-4.97;79.30
13476;BME280;6810;63.824;20.288;2022-12-24T03:03:52;99959.84;;;-5.02;79.63
13476;BME280;6810;63.824;20.288;2022-12-24T03:07:00;99967.66;;;-5.04;79.98
13476;BME280;6810;63.824;20.288;2022-12-24T03:13:14;99919.41;;;-5.29;79.84
13476;BME280;6810;63.824;20.288;2022-12-24T03:16:14;99971.13;;;-5.02;80.11
13476;BME280;6810;63.824;20.288;2022-12-24T03:19:02;99972.00;;;-5.03;79.95
13476;BME280;6810;63.824;20.288;2022-12-24T03:21:49;99959.94;;;-5.14;79.51
13476;BME280;6810;63.824;20.288;2022-12-24T03:24:37;99981.53;;;-5.05;79.83
13476;BME280;6810;63.824;20.288;2022-12-24T03:27:26;99966.03;;;-5.17;79.92
13476;BME280;6810;63.824;20.288;2022-12-24T03:30:15;99918.69;;;-5.48;79.63
13476;BME280;6810;63.824;20.288;2022-12-24T03:33:02;99993.69;;;-5.10;80.24
13476;BME280;6810;63.824;20.288;2022-12-24T03:35:49;99998.03;;;-5.12;80.13
13476;BME280;6810;63.824;20.288;2022-12-24T03:38:36;99980.81;;;-5.25;79.52
13476;BME280;6810;63.824;20.288;2022-12-24T03:41:23;99994.66;;;-5.24;79.47
13476;BME280;6810;63.824;20.288;2022-12-24T03:44:10;100017.13;;;-5.20;79.82
13476;BME280;6810;63.824;20.288;2022-12-24T03:46:57;100015.41;;;-5.23;80.05
13476;BME280;6810;63.824;20.288;2022-12-24T03:49:44;100011.09;;;-5.25;79.76
13476;BME280;6810;63.824;20.288;2022-12-24T03:52:31;100013.75;;;-5.35;79.91
13476;BME280;6810;63.824;20.288;2022-12-24T03:55:18;100020.69;;;-5.33;80.49
13476;BME280;6810;63.824;20.288;2022-12-24T03:58:05;99915.56;;;-5.95;79.77
13476;BME280;6810;63.824;20.288;2022-12-24T04:00:52;100029.38;;;-5.41;79.50
13476;BME280;6810;63.824;20.288;2022-12-24T04:03:40;100025.94;;;-5.43;79.88
13476;BME280;6810;63.824;20.288;2022-12-24T04:06:27;100032.84;;;-5.43;79.74
13476;BME280;6810;63.824;20.288;2022-12-24T04:09:14;100032.88;;;-5.46;79.88
13476;BME280;6810;63.824;20.288;2022-12-24T04:12:02;100012.19;;;-5.60;79.86
13476;BME280;6810;63.824;20.288;2022-12-24T04:14:49;100047.59;;;-5.51;79.61
13476;BME280;6810;63.824;20.288;2022-12-24T04:17:36;100051.09;;;-5.55;80.00
13476;BME280;6810;63.824;20.288;2022-12-24T04:20:23;99920.06;;;-6.33;79.62
13476;BME280;6810;63.824;20.288;2022-12-24T04:23:10;100052.81;;;-5.60;79.82
13476;BME280;6810;63.824;20.288;2022-12-24T04:26:04;99993.41;;;-6.07;79.56
13476;BME280;6810;63.824;20.288;2022-12-24T04:28:52;100064.09;;;-5.64;79.99
13476;BME280;6810;63.824;20.288;2022-12-24T04:31:39;100067.56;;;-5.68;79.63
13476;BME280;6810;63.824;20.288;2022-12-24T04:34:26;100062.38;;;-5.73;79.78
13476;BME280;6810;63.824;20.288;2022-12-24T04:37:13;100056.38;;;-5.78;79.64
13476;BME280;6810;63.824;20.288;2022-12-24T04:40:00;100065.88;;;-5.80;80.00
13476;BME280;6810;63.824;20.288;2022-12-24T04:42:47;100077.16;;;-5.82;79.94
13476;BME280;6810;63.824;20.288;2022-12-24T04:45:34;100080.63;;;-5.85;79.71
13476;BME280;6810;63.824;20.288;2022-12-24T04:48:21;100083.22;;;-5.89;79.57
13476;BME280;6810;63.824;20.288;2022-12-24T04:51:08;99955.59;;;-6.71;79.47
13476;BME280;6810;63.824;20.288;2022-12-24T04:53:55;100106.59;;;-6.00;79.93
13476;BME280;6810;63.824;20.288;2022-12-24T04:56:43;100091.09;;;-6.16;79.51
13476;BME280;6810;63.824;20.288;2022-12-24T04:59:30;100094.50;;;-6.11;79.82
13476;BME280;6810;63.824;20.288;2022-12-24T05:02:17;100094.53;;;-6.17;79.70
13476;BME280;6810;63.824;20.288;2022-12-24T05:05:04;100105.78;;;-6.18;80.01
13476;BME280;6810;63.824;20.288;2022-12-24T05:08:04;100105.78;;;-6.21;79.63
13476;BME280;6810;63.824;20.288;2022-12-24T05:10:57;100106.66;;;-6.25;79.68
13476;BME280;6810;63.824;20.288;2022-12-24T05:13:45;100114.44;;;-6.33;80.10
13476;BME280;6810;63.824;20.288;2022-12-24T05:16:32;100046.22;;;-6.78;79.79
13476;BME280;6810;63.824;20.288;2022-12-24T05:19:19;100091.09;;;-6.60;79.46
13476;BME280;6810;63.824;20.288;2022-12-24T05:22:06;100102.34;;;-6.62;79.86
13476;BME280;6810;63.824;20.288;2022-12-24T05:24:52;100124.78;;;-6.54;79.65
13476;BME280;6810;63.824;20.288;2022-12-24T05:27:37;100081.63;;;-6.86;79.58
13476;BME280;6810;63.824;20.288;2022-12-24T05:30:24;100138.59;;;-6.61;79.71
13476;BME280;6810;63.824;20.288;2022-12-24T05:33:11;100151.56;;;-6.64;79.62
13476;BME280;6810;63.824;20.288;2022-12-24T05:35:58;100155.03;;;-6.68;79.63
13476;BME280;6810;63.824;20.288;2022-12-24T05:38:45;100160.19;;;-6.71;79.34
13476;BME280;6810;63.824;20.288;2022-12-24T05:41:39;100131.66;;;-6.92;79.86
13476;BME280;6810;63.824;20.288;2022-12-24T05:44:26;100168.78;;;-6.79;79.50
13476;BME280;6810;63.824;20.288;2022-12-24T05:47:13;100166.19;;;-6.84;79.55
13476;BME280;6810;63.824;20.288;2022-12-24T05:50:09;100173.97;;;-6.88;79.40
13476;BME280;6810;63.824;20.288;2022-12-24T05:53:04;100176.53;;;-6.93;79.39
13476;BME280;6810;63.824;20.288;2022-12-24T05:55:50;100179.13;;;-6.97;79.34
13476;BME280;6810;63.824;20.288;2022-12-24T05:58:38;100190.34;;;-7.01;79.51
13476;BME280;6810;63.824;20.288;2022-12-24T06:01:25;100185.09;;;-7.07;79.42
13476;BME280;6810;63.824;20.288;2022-12-24T06:04:13;100192.00;;;-7.12;79.16
13476;BME280;6810;63.824;20.288;2022-12-24T06:07:00;100205.78;;;-7.18;79.27
13476;BME280;6810;63.824;20.288;2022-12-24T06:09:48;100213.53;;;-7.21;79.41
13476;BME280;6810;63.824;20.288;2022-12-24T06:12:35;100163.34;;;-7.53;79.00
13476;BME280;6810;63.824;20.288;2022-12-24T06:15:22;100221.25;;;-7.30;79.39
13476;BME280;6810;63.824;20.288;2022-12-24T06:18:09;100224.69;;;-7.37;79.24
13476;BME280;6810;63.824;20.288;2022-12-24T06:20:57;100235.91;;;-7.37;79.38
13476;BME280;6810;63.824;20.288;2022-12-24T06:23:44;100227.22;;;-7.45;79.29
13476;BME280;6810;63.824;20.288;2022-12-24T06:26:31;100209.88;;;-7.59;79.60
13476;BME280;6810;63.824;20.288;2022-12-24T06:29:18;100244.44;;;-7.48;79.05
13476;BME280;6810;63.824;20.288;2022-12-24T06:32:05;100243.56;;;-7.53;79.25
13476;BME280;6810;63.824;20.288;2022-12-24T06:34:52;100242.69;;;-7.57;79.02
13476;BME280;6810;63.824;20.288;2022-12-24T06:37:39;100144.88;;;-8.21;78.82
13476;BME280;6810;63.824;20.288;2022-12-24T06:40:27;100195.84;;;-8.00;79.25
13476;BME280;6810;63.824;20.288;2022-12-24T06:43:14;100254.69;;;-7.68;79.01
13476;BME280;6810;63.824;20.288;2022-12-24T06:46:01;100262.41;;;-7.72;79.09
13476;BME280;6810;63.824;20.288;2022-12-24T06:48:49;100270.13;;;-7.77;78.83
13476;BME280;6810;63.824;20.288;2022-12-24T06:51:36;100286.44;;;-7.81;79.23
13476;BME280;6810;63.824;20.288;2022-12-24T06:54:23;100275.22;;;-7.86;79.08
13476;BME280;6810;63.824;20.288;2022-12-24T06:57:10;100276.91;;;-7.89;79.00
13476;BME280;6810;63.824;20.288;2022-12-24T06:59:57;100272.47;;;-8.05;78.66
13476;BME280;6810;63.824;20.288;2022-12-24T07:02:44;100291.50;;;-7.97;79.13
13476;BME280;6810;63.824;20.288;2022-12-24T07:05:31;100296.63;;;-8.02;78.90
13476;BME280;6810;63.824;20.288;2022-12-24T07:08:18;100300.88;;;-8.05;79.23
13476;BME280;6810;63.824;20.288;2022-12-24T07:11:06;100294.81;;;-8.13;78.98
13476;BME280;6810;63.824;20.288;2022-12-24T07:13:52;100299.97;;;-8.15;78.47
13476;BME280;6810;63.824;20.288;2022-12-24T07:16:40;100286.13;;;-8.23;78.82
13476;BME280;6810;63.824;20.288;2022-12-24T07:19:27;100301.63;;;-8.23;79.19
13476;BME280;6810;63.824;20.288;2022-12-24T07:22:14;100311.94;;;-8.27;78.31
13476;BME280;6810;63.824;20.288;2022-12-24T07:25:01;100245.16;;;-8.72;78.87
13476;BME280;6810;63.824;20.288;2022-12-24T07:27:48;100316.13;;;-8.35;78.26
13476;BME280;6810;63.824;20.288;2022-12-24T07:30:35;100327.31;;;-8.39;79.24
13476;BME280;6810;63.824;20.288;2022-12-24T07:33:23;100271.84;;;-8.73;78.46
13476;BME280;6810;63.824;20.288;2022-12-24T07:36:16;100340.13;;;-8.47;79.21
13476;BME280;6810;63.824;20.288;2022-12-24T07:39:04;100347.88;;;-8.48;78.63
13476;BME280;6810;63.824;20.288;2022-12-24T07:41:50;100352.13;;;-8.52;78.86
13476;BME280;6810;63.824;20.288;2022-12-24T07:44:38;100356.38;;;-8.54;78.55
13476;BME280;6810;63.824;20.288;2022-12-24T07:47:25;100358.94;;;-8.57;78.73
13476;BME280;6810;63.824;20.288;2022-12-24T07:50:13;100356.31;;;-8.60;79.06
13476;BME280;6810;63.824;20.288;2022-12-24T07:53:00;100355.47;;;-8.62;78.94
13476;BME280;6810;63.824;20.288;2022-12-24T07:55:47;100285.94;;;-9.17;78.49
13476;BME280;6810;63.824;20.288;2022-12-24T07:58:39;100363.97;;;-8.67;78.93
13476;BME280;6810;63.824;20.288;2022-12-24T08:01:26;100361.34;;;-8.70;78.48
13476;BME280;6810;63.824;20.288;2022-12-24T08:04:13;100364.78;;;-8.73;78.30
13476;BME280;6810;63.824;20.288;2022-12-24T08:07:05;100378.50;;;-8.75;78.62
13476;BME280;6810;63.824;20.288;2022-12-24T08:09:52;100370.72;;;-8.77;78.22
13476;BME280;6810;63.824;20.288;2022-12-24T08:12:39;100368.09;;;-8.80;78.22
13476;BME280;6810;63.824;20.288;2022-12-24T08:15:26;100361.19;;;-8.82;78.54
13476;BME280;6810;63.824;20.288;2022-12-24T08:18:13;100367.16;;;-8.88;78.65
13476;BME280;6810;63.824;20.288;2022-12-24T08:21:00;100388.69;;;-8.86;78.80
13476;BME280;6810;63.824;20.288;2022-12-24T08:23:47;100381.78;;;-8.87;79.13
13476;BME280;6810;63.824;20.288;2022-12-24T08:26:34;100386.94;;;-8.88;78.41
13476;BME280;6810;63.824;20.288;2022-12-24T08:29:21;100393.78;;;-8.90;78.16
13476;BME280;6810;63.824;20.288;2022-12-24T08:32:08;100392.81;;;-8.98;78.86
13476;BME280;6810;63.824;20.288;2022-12-24T08:34:55;100376.31;;;-9.10;78.76
13476;BME280;6810;63.824;20.288;2022-12-24T08:37:42;100393.66;;;-8.99;78.76
13476;BME280;6810;63.824;20.288;2022-12-24T08:40:29;100391.03;;;-9.02;78.99
13476;BME280;6810;63.824;20.288;2022-12-24T08:43:16;100386.56;;;-9.16;78.60
13476;BME280;6810;63.824;20.288;2022-12-24T08:46:04;100396.09;;;-9.09;78.78
13476;BME280;6810;63.824;20.288;2022-12-24T08:48:52;100403.03;;;-9.05;78.38
13476;BME280;6810;63.824;20.288;2022-12-24T08:51:39;100394.28;;;-9.16;78.77
13476;BME280;6810;63.824;20.288;2022-12-24T08:54:26;100405.50;;;-9.12;78.65
13476;BME280;6810;63.824;20.288;2022-12-24T08:57:13;100400.25;;;-9.18;79.07
13476;BME280;6810;63.824;20.288;2022-12-24T09:00:00;100415.88;;;-9.09;79.09
13476;BME280;6810;63.824;20.288;2022-12-24T09:02:47;100415.84;;;-9.11;78.17
13476;BME280;6810;63.824;20.288;2022-12-24T09:05:38;100382.00;;;-9.32;78.75
13476;BME280;6810;63.824;20.288;2022-12-24T09:08:25;100416.69;;;-9.12;78.12
13476;BME280;6810;63.824;20.288;2022-12-24T09:11:14;100363.63;;;-9.53;78.22
13476;BME280;6810;63.824;20.288;2022-12-24T09:14:03;100335.84;;;-9.69;78.73
13476;BME280;6810;63.824;20.288;2022-12-24T09:16:50;100432.13;;;-9.16;78.67
13476;BME280;6810;63.824;20.288;2022-12-24T09:19:37;100401.72;;;-9.34;78.95
13476;BME280;6810;63.824;20.288;2022-12-24T09:22:24;100432.91;;;-9.20;78.87
13476;BME280;6810;63.824;20.288;2022-12-24T09:25:11;100442.38;;;-9.19;78.98
13476;BME280;6810;63.824;20.288;2022-12-24T09:27:58;100425.03;;;-9.31;78.80
13476;BME280;6810;63.824;20.288;2022-12-24T09:30:57;100433.75;;;-9.21;78.01
13476;BME280;6810;63.824;20.288;2022-12-24T09:33:46;100433.75;;;-9.21;78.83
13476;BME280;6810;63.824;20.288;2022-12-24T09:36:34;100413.84;;;-9.30;78.32
13476;BME280;6810;63.824;20.288;2022-12-24T09:39:20;100439.78;;;-9.21;78.88
13476;BME280;6810;63.824;20.288;2022-12-24T09:42:18;100431.16;;;-9.21;78.04
13476;BME280;6810;63.824;20.288;2022-12-24T09:45:19;100396.38;;;-9.46;78.60
13476;BME280;6810;63.824;20.288;2022-12-24T09:48:13;100439.78;;;-9.21;78.07
13476;BME280;6810;63.824;20.288;2022-12-24T09:51:07;100435.50;;;-9.20;78.16
13476;BME280;6810;63.824;20.288;2022-12-24T09:56:46;100438.13;;;-9.17;78.91
13476;BME280;6810;63.824;20.288;2022-12-24T09:59:42;100432.03;;;-9.21;78.27
13476;BME280;6810;63.824;20.288;2022-12-24T10:02:35;100443.22;;;-9.22;78.71
13476;BME280;6810;63.824;20.288;2022-12-24T10:05:31;100451.06;;;-9.16;78.64
13476;BME280;6810;63.824;20.288;2022-12-24T10:08:25;100460.53;;;-9.13;78.85
13476;BME280;6810;63.824;20.288;2022-12-24T10:11:25;100455.38;;;-9.13;77.99
13476;BME280;6810;63.824;20.288;2022-12-24T10:26:14;100466.69;;;-9.05;78.65
13476;BME280;6810;63.824;20.288;2022-12-24T10:29:18;100464.16;;;-9.02;78.64
13476;BME280;6810;63.824;20.288;2022-12-24T10:34:58;100461.63;;;-8.99;78.54
13476;BME280;6810;63.824;20.288;2022-12-24T10:37:48;100455.56;;;-9.01;78.04
13476;BME280;6810;63.824;20.288;2022-12-24T10:40:44;100467.72;;;-8.95;78.34
13476;BME280;6810;63.824;20.288;2022-12-24T10:43:32;100333.28;;;-9.67;78.23
13476;BME280;6810;63.824;20.288;2022-12-24T10:46:25;100472.03;;;-8.93;77.90
13476;BME280;6810;63.824;20.288;2022-12-24T10:49:18;100475.53;;;-8.91;78.06
13476;BME280;6810;63.824;20.288;2022-12-24T10:52:10;100461.63;;;-8.99;78.48
13476;BME280;6810;63.824;20.288;2022-12-24T10:55:20;100475.53;;;-8.89;78.42
13476;BME280;6810;63.824;20.288;2022-12-24T10:58:14;100467.72;;;-8.95;78.58
13476;BME280;6810;63.824;20.288;2022-12-24T11:01:02;100466.84;;;-8.96;78.17
13476;BME280;6810;63.824;20.288;2022-12-24T11:04:00;100482.44;;;-8.88;78.34
13476;BME280;6810;63.824;20.288;2022-12-24T11:09:40;100494.56;;;-8.83;78.32
13476;BME280;6810;63.824;20.288;2022-12-24T11:12:30;100497.13;;;-8.83;77.73
13476;BME280;6810;63.824;20.288;2022-12-24T11:15:38;100504.06;;;-8.82;78.18
13476;BME280;6810;63.824;20.288;2022-12-24T11:18:25;100457.16;;;-9.09;78.24
13476;BME280;6810;63.824;20.288;2022-12-24T11:21:20;100504.06;;;-8.80;78.38
13476;BME280;6810;63.824;20.288;2022-12-24T11:27:37;100511.88;;;-8.77;78.08
13476;BME280;6810;63.824;20.288;2022-12-24T11:30:30;100509.28;;;-8.77;78.42
13476;BME280;6810;63.824;20.288;2022-12-24T11:33:19;100529.09;;;-8.76;78.38
13476;BME280;6810;63.824;20.288;2022-12-24T11:36:11;100500.50;;;-8.88;78.02
13476;BME280;6810;63.824;20.288;2022-12-24T11:38:59;100516.19;;;-8.75;78.41
13476;BME280;6810;63.824;20.288;2022-12-24T11:41:46;100495.34;;;-8.87;78.31
13476;BME280;6810;63.824;20.288;2022-12-24T11:44:33;100517.94;;;-8.72;77.94
13476;BME280;6810;63.824;20.288;2022-12-24T11:47:34;100514.53;;;-8.73;78.71
13476;BME280;6810;63.824;20.288;2022-12-24T11:50:27;100526.56;;;-8.72;78.25
13476;BME280;6810;63.824;20.288;2022-12-24T11:53:20;100522.31;;;-8.70;78.33
13476;BME280;6810;63.824;20.288;2022-12-24T11:56:42;100536.09;;;-8.68;77.75
13476;BME280;6810;63.824;20.288;2022-12-24T11:59:45;100397.22;;;-9.48;78.31
13476;BME280;6810;63.824;20.288;2022-12-24T12:02:37;100532.69;;;-8.65;78.35
13476;BME280;6810;63.824;20.288;2022-12-24T12:05:31;100531.00;;;-8.65;78.22
13476;BME280;6810;63.824;20.288;2022-12-24T12:08:20;100526.69;;;-8.64;78.03
13476;BME280;6810;63.824;20.288;2022-12-24T12:11:13;100511.00;;;-8.76;77.73
13476;BME280;6810;63.824;20.288;2022-12-24T12:14:02;100535.34;;;-8.61;78.58
13476;BME280;6810;63.824;20.288;2022-12-24T12:23:12;100544.03;;;-8.57;78.46
13476;BME280;6810;63.824;20.288;2022-12-24T12:26:09;100544.03;;;-8.57;78.36
13476;BME280;6810;63.824;20.288;2022-12-24T12:32:03;100541.44;;;-8.57;78.02
13476;BME280;6810;63.824;20.288;2022-12-24T12:35:00;100553.53;;;-8.55;78.25
13476;BME280;6810;63.824;20.288;2022-12-24T12:38:12;100561.25;;;-8.55;77.83
13476;BME280;6810;63.824;20.288;2022-12-24T12:41:20;100562.16;;;-8.54;78.40
13476;BME280;6810;63.824;20.288;2022-12-24T12:54:02;100575.06;;;-8.54;78.06
13476;BME280;6810;63.824;20.288;2022-12-24T12:56:54;100571.56;;;-8.56;78.08
13476;BME280;6810;63.824;20.288;2022-12-24T12:59:48;100578.47;;;-8.55;78.22
13476;BME280;6810;63.824;20.288;2022-12-24T13:05:59;100601.72;;;-8.54;78.22
13476;BME280;6810;63.824;20.288;2022-12-24T13:15:34;100600.03;;;-8.53;78.13
13476;BME280;6810;63.824;20.288;2022-12-24T13:21:28;100584.34;;;-8.65;78.20
13476;BME280;6810;63.824;20.288;2022-12-24T13:24:18;100612.13;;;-8.51;78.39
13476;BME280;6810;63.824;20.288;2022-12-24T13:27:24;100609.53;;;-8.51;78.33
13476;BME280;6810;63.824;20.288;2022-12-24T13:30:34;100609.56;;;-8.48;78.09
13476;BME280;6810;63.824;20.288;2022-12-24T13:36:24;100601.84;;;-8.46;77.65
13476;BME280;6810;63.824;20.288;2022-12-24T13:39:18;100609.59;;;-8.46;78.48
13476;BME280;6810;63.824;20.288;2022-12-24T13:42:05;100613.06;;;-8.46;77.95
13476;BME280;6810;63.824;20.288;2022-12-24T13:51:18;100619.13;;;-8.44;78.31
13476;BME280;6810;63.824;20.288;2022-12-24T13:54:10;100635.47;;;-8.43;77.57
13476;BME280;6810;63.824;20.288;2022-12-24T13:56:59;100634.63;;;-8.44;78.21
13476;BME280;6810;63.824;20.288;2022-12-24T13:59:47;100647.56;;;-8.42;77.94
13476;BME280;6810;63.824;20.288;2022-12-24T14:02:52;100649.28;;;-8.41;77.66
13476;BME280;6810;63.824;20.288;2022-12-24T14:08:39;100655.38;;;-8.39;78.29
13476;BME280;6810;63.824;20.288;2022-12-24T14:11:27;100655.41;;;-8.38;77.75
13476;BME280;6810;63.824;20.288;2022-12-24T14:14:26;100670.00;;;-8.40;77.91
13476;BME280;6810;63.824;20.288;2022-12-24T14:20:07;100677.63;;;-8.47;78.21
13476;BME280;6810;63.824;20.288;2022-12-24T14:22:55;100672.41;;;-8.49;77.60
13476;BME280;6810;63.824;20.288;2022-12-24T14:25:42;100681.78;;;-8.55;77.88
13476;BME280;6810;63.824;20.288;2022-12-24T14:28:34;100693.06;;;-8.50;77.94
13476;BME280;6810;63.824;20.288;2022-12-24T14:31:23;100691.34;;;-8.51;78.45
13476;BME280;6810;63.824;20.288;2022-12-24T14:34:12;100686.16;;;-8.51;78.52
13476;BME280;6810;63.824;20.288;2022-12-24T14:37:02;100694.75;;;-8.51;77.99
13476;BME280;6810;63.824;20.288;2022-12-24T14:39:49;100694.75;;;-8.51;78.01
13476;BME280;6810;63.824;20.288;2022-12-24T18:56:07;100847.00;;;-10.08;77.43
13476;BME280;6810;63.824;20.288;2022-12-24T18:59:00;100791.16;;;-10.42;77.04
13476;BME280;6810;63.824;20.288;2022-12-24T19:01:48;100859.94;;;-10.04;77.25
13476;BME280;6810;63.824;20.288;2022-12-24T19:04:35;100860.88;;;-10.02;78.09
13476;BME280;6810;63.824;20.288;2022-12-24T19:07:22;100866.94;;;-10.00;78.13
13476;BME280;6810;63.824;20.288;2022-12-24T19:10:10;100884.19;;;-9.97;77.42
13476;BME280;6810;63.824;20.288;2022-12-24T19:12:57;100873.88;;;-9.97;77.97
13476;BME280;6810;63.824;20.288;2022-12-24T19:15:44;100885.91;;;-9.96;77.23
13476;BME280;6810;63.824;20.288;2022-12-24T19:18:31;100892.84;;;-9.95;77.43
13476;BME280;6810;63.824;20.288;2022-12-24T19:21:18;100878.94;;;-10.00;78.03
13476;BME280;6810;63.824;20.288;2022-12-24T19:24:06;100891.19;;;-9.93;77.47
13476;BME280;6810;63.824;20.288;2022-12-24T19:26:53;100876.50;;;-9.96;78.17
13476;BME280;6810;63.824;20.288;2022-12-24T19:29:40;100894.66;;;-9.91;77.66
13476;BME280;6810;63.824;20.288;2022-12-24T19:32:27;100902.41;;;-9.90;78.19
13476;BME280;6810;63.824;20.288;2022-12-24T19:35:14;100897.25;;;-9.90;78.22
13476;BME280;6810;63.824;20.288;2022-12-24T19:38:02;100896.41;;;-9.90;78.19
13476;BME280;6810;63.824;20.288;2022-12-24T19:40:49;100885.84;;;-9.99;77.96
13476;BME280;6810;63.824;20.288;2022-12-24T19:43:40;100844.88;;;-10.24;77.66
13476;BME280;6810;63.824;20.288;2022-12-24T19:46:29;100905.78;;;-9.92;77.63
13476;BME280;6810;63.824;20.288;2022-12-24T19:49:16;100905.75;;;-9.94;77.11
13476;BME280;6810;63.824;20.288;2022-12-24T19:52:03;100900.59;;;-9.94;77.57
13476;BME280;6810;63.824;20.288;2022-12-24T19:54:50;100905.72;;;-9.95;77.46
13476;BME280;6810;63.824;20.288;2022-12-24T19:57:37;100915.13;;;-9.96;77.41
13476;BME280;6810;63.824;20.288;2022-12-24T20:00:25;100896.78;;;-10.09;77.14
13476;BME280;6810;63.824;20.288;2022-12-24T20:03:12;100926.25;;;-9.98;77.37
13476;BME280;6810;63.824;20.288;2022-12-24T20:05:59;100878.19;;;-10.30;77.81
13476;BME280;6810;63.824;20.288;2022-12-24T20:08:46;100934.88;;;-9.96;77.97
13476;BME280;6810;63.824;20.288;2022-12-24T20:11:34;100926.09;;;-10.04;78.17
13476;BME280;6810;63.824;20.288;2022-12-24T20:14:21;100946.94;;;-9.95;77.52
13476;BME280;6810;63.824;20.288;2022-12-24T20:17:08;100945.25;;;-9.95;78.09
13476;BME280;6810;63.824;20.288;2022-12-24T20:19:55;100945.34;;;-9.92;77.91
13476;BME280;6810;63.824;20.288;2022-12-24T20:22:42;100956.53;;;-9.90;78.21
13476;BME280;6810;63.824;20.288;2022-12-24T20:25:35;100961.72;;;-9.88;77.66
13476;BME280;6810;63.824;20.288;2022-12-24T20:28:24;100966.06;;;-9.87;77.88
13476;BME280;6810;63.824;20.288;2022-12-24T20:31:13;100967.81;;;-9.86;77.26
13476;BME280;6810;63.824;20.288;2022-12-24T20:34:02;100972.06;;;-9.87;77.20
13476;BME280;6810;63.824;20.288;2022-12-24T20:36:49;100981.56;;;-9.86;77.34
13476;BME280;6810;63.824;20.288;2022-12-24T20:39:36;100983.28;;;-9.86;77.34
13476;BME280;6810;63.824;20.288;2022-12-24T20:42:23;100972.97;;;-9.86;78.23